| time (UTC) | temp F | wind direction | speed knots | gust knots | rain 1hr in | rain 24hr in | rain mn in | humidity % | barometer mb |
| 20260506235004 | 49 | 0 | 2.6 | 4.3 | 0.00 | 0.00 | 0.00 | 27 | 1038.3 |
| 20260506234003 | 49 | 0 | 2.6 | 4.3 | 0.00 | 0.00 | 0.00 | 27 | 1038.3 |
| 20260506233004 | 49 | 0 | 2.6 | 4.3 | 0.00 | 0.00 | 0.00 | 27 | 1038.3 |
| 20260506232004 | 49 | 0 | 2.6 | 4.3 | 0.00 | 0.00 | 0.00 | 27 | 1038.3 |
| 20260506231003 | 49 | 0 | 2.6 | 4.3 | 0.00 | 0.00 | 0.00 | 27 | 1038.3 |
| 20260506230004 | 49 | 0 | 2.6 | 4.3 | 0.00 | 0.00 | 0.00 | 27 | 1038.3 |
| 20260506225003 | 49 | 0 | 2.6 | 4.3 | 0.00 | 0.00 | 0.00 | 27 | 1038.3 |
| 20260506224004 | 49 | 0 | 2.6 | 4.3 | 0.00 | 0.00 | 0.00 | 27 | 1038.3 |
| 20260506223004 | 49 | 0 | 2.6 | 4.3 | 0.00 | 0.00 | 0.00 | 27 | 1038.3 |
| 20260506222004 | 49 | 0 | 2.6 | 4.3 | 0.00 | 0.00 | 0.00 | 27 | 1038.3 |
| 20260506221014 | 49 | 0 | 2.6 | 4.3 | 0.00 | 0.00 | 0.00 | 27 | 1038.3 |
| 20260506220004 | 49 | 0 | 2.6 | 4.3 | 0.00 | 0.00 | 0.00 | 27 | 1038.3 |
| 20260506215005 | 49 | 0 | 2.6 | 4.3 | 0.00 | 0.00 | 0.00 | 27 | 1038.3 |
| 20260506212004 | 49 | 0 | 2.6 | 4.3 | 0.00 | 0.00 | 0.00 | 27 | 1038.3 |
| 20260506210004 | 49 | 0 | 2.6 | 4.3 | 0.00 | 0.00 | 0.00 | 27 | 1038.3 |
| 20260506205004 | 49 | 0 | 2.6 | 4.3 | 0.00 | 0.00 | 0.00 | 27 | 1038.3 |
| 20260506204003 | 49 | 0 | 2.6 | 4.3 | 0.00 | 0.00 | 0.00 | 27 | 1038.3 |
| 20260506203004 | 49 | 0 | 2.6 | 4.3 | 0.00 | 0.00 | 0.00 | 27 | 1038.3 |
| 20260506202004 | 49 | 0 | 2.6 | 4.3 | 0.00 | 0.00 | 0.00 | 27 | 1038.3 |
| 20260506200004 | 49 | 0 | 2.6 | 4.3 | 0.00 | 0.00 | 0.00 | 27 | 1038.3 |
| 20260506195003 | 49 | 0 | 2.6 | 4.3 | 0.00 | 0.00 | 0.00 | 27 | 1038.3 |
| 20260506194004 | 49 | 0 | 2.6 | 4.3 | 0.00 | 0.00 | 0.00 | 27 | 1038.3 |
| 20260506193004 | 49 | 0 | 2.6 | 4.3 | 0.00 | 0.00 | 0.00 | 27 | 1038.3 |
| 20260506192004 | 49 | 0 | 2.6 | 4.3 | 0.00 | 0.00 | 0.00 | 27 | 1038.3 |
| 20260506191004 | 49 | 0 | 2.6 | 4.3 | 0.00 | 0.00 | 0.00 | 27 | 1038.3 |
| 20260506190005 | 49 | 0 | 2.6 | 4.3 | 0.00 | 0.00 | 0.00 | 27 | 1038.3 |
| 20260506185003 | 49 | 0 | 2.6 | 4.3 | 0.00 | 0.00 | 0.00 | 27 | 1038.3 |
| 20260506184003 | 49 | 0 | 2.6 | 4.3 | 0.00 | 0.00 | 0.00 | 27 | 1038.3 |
| 20260506183004 | 49 | 0 | 2.6 | 4.3 | 0.00 | 0.00 | 0.00 | 27 | 1038.3 |
| 20260506182004 | 49 | 0 | 2.6 | 4.3 | 0.00 | 0.00 | 0.00 | 27 | 1038.3 |
| 20260506181004 | 49 | 0 | 2.6 | 4.3 | 0.00 | 0.00 | 0.00 | 27 | 1038.3 |
| 20260506180005 | 49 | 0 | 2.6 | 4.3 | 0.00 | 0.00 | 0.00 | 27 | 1038.3 |
| 20260506175013 | 49 | 0 | 2.6 | 4.3 | 0.00 | 0.00 | 0.00 | 27 | 1038.3 |
| 20260506173004 | 49 | 0 | 2.6 | 4.3 | 0.00 | 0.00 | 0.00 | 27 | 1038.3 |
| 20260506172004 | 49 | 0 | 2.6 | 4.3 | 0.00 | 0.00 | 0.00 | 27 | 1038.3 |
| 20260506170005 | 49 | 0 | 2.6 | 4.3 | 0.00 | 0.00 | 0.00 | 27 | 1038.3 |
| 20260506164004 | 49 | 0 | 2.6 | 4.3 | 0.00 | 0.00 | 0.00 | 27 | 1038.3 |
| 20260506163004 | 49 | 0 | 2.6 | 4.3 | 0.00 | 0.00 | 0.00 | 27 | 1038.3 |
| 20260506162004 | 49 | 0 | 2.6 | 4.3 | 0.00 | 0.00 | 0.00 | 27 | 1038.3 |
| 20260506161005 | 49 | 0 | 2.6 | 4.3 | 0.00 | 0.00 | 0.00 | 27 | 1038.3 |
| 20260506150017 | 45 | 14 | 8.7 | 10.4 | 0.00 | 0.20 | 0.20 | 22 | 989.3 |
| 20260506145017 | 46 | 15 | 8.7 | 10.4 | 0.00 | 0.20 | 0.20 | 23 | 989.6 |
| 20260506144017 | 47 | 17 | 8.7 | 9.6 | 0.00 | 0.20 | 0.20 | 23 | 989.9 |
| 20260506143017 | 47 | 19 | 7.8 | 9.6 | 0.00 | 0.20 | 0.20 | 23 | 990.2 |
| 20260506142017 | 48 | 20 | 7.8 | 9.6 | 0.00 | 0.20 | 0.20 | 23 | 990.5 |
| 20260506141017 | 49 | 22 | 7.8 | 9.6 | 0.00 | 0.20 | 0.20 | 24 | 990.9 |
| 20260506140017 | 50 | 24 | 7.8 | 9.6 | 0.00 | 0.20 | 0.20 | 24 | 991.2 |
| 20260506135017 | 51 | 26 | 7.8 | 9.6 | 0.00 | 0.20 | 0.20 | 24 | 991.6 |
| 20260506134017 | 52 | 28 | 7.8 | 9.6 | 0.00 | 0.20 | 0.20 | 25 | 992.0 |
| 20260506133037 | 53 | 30 | 7.8 | 9.6 | 0.00 | 0.20 | 0.20 | 25 | 992.4 |
| 20260506132037 | 53 | 33 | 7.8 | 9.6 | 0.00 | 0.20 | 0.20 | 25 | 992.8 |
| 20260506131017 | 54 | 35 | 7.8 | 9.6 | 0.00 | 0.20 | 0.20 | 26 | 993.3 |
| 20260506130017 | 55 | 37 | 7.8 | 9.6 | 0.00 | 0.20 | 0.20 | 26 | 993.7 |
| 20260506125017 | 56 | 40 | 7.8 | 9.6 | 0.00 | 0.20 | 0.20 | 27 | 994.2 |
| 20260506124037 | 57 | 42 | 7.8 | 9.6 | 0.00 | 0.20 | 0.20 | 27 | 994.6 |
| 20260506123017 | 58 | 45 | 7.8 | 9.6 | 0.00 | 0.20 | 0.20 | 27 | 995.1 |
| 20260506122037 | 58 | 47 | 7.8 | 8.7 | 0.00 | 0.20 | 0.20 | 28 | 995.6 |
| 20260506121017 | 59 | 50 | 7.8 | 8.7 | 0.00 | 0.20 | 0.20 | 28 | 996.1 |
| 20260506120017 | 60 | 53 | 7.8 | 8.7 | 0.00 | 0.20 | 0.20 | 29 | 996.6 |
| 20260506115016 | 61 | 55 | 7.0 | 8.7 | 0.00 | 0.20 | 0.20 | 29 | 997.1 |
| 20260506114017 | 61 | 58 | 7.0 | 8.7 | 0.00 | 0.20 | 0.20 | 30 | 997.7 |
| 20260506113037 | 62 | 61 | 7.0 | 8.7 | 0.00 | 0.20 | 0.20 | 30 | 998.2 |
| 20260506112017 | 63 | 64 | 7.0 | 8.7 | 0.00 | 0.20 | 0.20 | 31 | 998.8 |
| 20260506111017 | 63 | 67 | 7.0 | 8.7 | 0.00 | 0.20 | 0.20 | 31 | 999.4 |
| 20260506110017 | 64 | 70 | 7.0 | 8.7 | 0.00 | 0.20 | 0.20 | 32 | 1000.0 |
| 20260506105017 | 65 | 73 | 7.0 | 8.7 | 0.00 | 0.20 | 0.20 | 32 | 1000.5 |
| 20260506104017 | 65 | 77 | 7.0 | 7.8 | 0.00 | 0.20 | 0.20 | 33 | 1001.1 |
| 20260506103017 | 66 | 80 | 7.0 | 7.8 | 0.00 | 0.20 | 0.20 | 33 | 1001.8 |
| 20260506102017 | 66 | 83 | 7.0 | 7.8 | 0.00 | 0.20 | 0.20 | 34 | 1002.4 |
| 20260506101017 | 67 | 87 | 7.0 | 7.8 | 0.00 | 0.20 | 0.20 | 34 | 1003.0 |
| 20260506100037 | 67 | 90 | 7.0 | 7.8 | 0.00 | 0.20 | 0.20 | 35 | 1003.6 |
| 20260506095037 | 68 | 93 | 6.1 | 7.8 | 0.00 | 0.20 | 0.20 | 36 | 1004.3 |
| 20260506094017 | 68 | 97 | 6.1 | 7.8 | 0.00 | 0.20 | 0.20 | 36 | 1004.9 |
| 20260506093016 | 68 | 100 | 6.1 | 7.8 | 0.00 | 0.20 | 0.20 | 37 | 1005.6 |
| 20260506092016 | 69 | 104 | 6.1 | 7.8 | 0.00 | 0.20 | 0.20 | 37 | 1006.3 |
| 20260506091017 | 69 | 107 | 6.1 | 7.0 | 0.00 | 0.20 | 0.20 | 38 | 1006.9 |
| 20260506090017 | 69 | 111 | 6.1 | 7.0 | 0.00 | 0.20 | 0.20 | 39 | 1007.6 |
| 20260506085017 | 70 | 115 | 6.1 | 7.0 | 0.01 | 0.20 | 0.20 | 39 | 1008.3 |
| 20260506084017 | 70 | 118 | 6.1 | 7.0 | 0.02 | 0.20 | 0.20 | 40 | 1009.0 |
| 20260506083037 | 70 | 122 | 6.1 | 7.0 | 0.03 | 0.20 | 0.20 | 40 | 1009.7 |
| 20260506082037 | 70 | 126 | 6.1 | 7.0 | 0.04 | 0.20 | 0.20 | 41 | 1010.4 |
| 20260506081017 | 70 | 130 | 5.2 | 7.0 | 0.05 | 0.20 | 0.20 | 42 | 1011.1 |
| 20260506073017 | 70 | 145 | 5.2 | 6.1 | 0.07 | 0.17 | 0.17 | 44 | 1014.0 |
| 20260506072037 | 70 | 149 | 5.2 | 6.1 | 0.07 | 0.16 | 0.16 | 45 | 1014.7 |
| 20260506071017 | 70 | 153 | 5.2 | 6.1 | 0.07 | 0.15 | 0.15 | 45 | 1015.4 |
| 20260506062017 | 68 | 172 | 4.3 | 5.2 | 0.06 | 0.09 | 0.09 | 49 | 1019.1 |
| 20260506061038 | 68 | 176 | 4.3 | 5.2 | 0.06 | 0.08 | 0.08 | 49 | 1019.8 |
| 20260506051017 | 65 | 200 | 3.5 | 4.3 | 0.02 | 0.02 | 0.02 | 53 | 1024.3 |
| 20260506045017 | 64 | 207 | 3.5 | 4.3 | 0.00 | 0.00 | 0.00 | 55 | 1025.7 |
| 20260506044017 | 63 | 211 | 3.5 | 4.3 | 0.00 | 0.00 | 0.00 | 55 | 1026.5 |
| 20260506043017 | 62 | 215 | 3.5 | 4.3 | 0.00 | 0.00 | 0.00 | 56 | 1027.2 |
| 20260506042017 | 61 | 219 | 3.5 | 4.3 | 0.00 | 0.00 | 0.00 | 56 | 1027.9 |
| 20260506041017 | 61 | 223 | 3.5 | 4.3 | 0.00 | 0.00 | 0.00 | 57 | 1028.6 |
| 20260506040017 | 60 | 227 | 3.5 | 3.5 | 0.00 | 0.00 | 0.00 | 58 | 1029.4 |
| 20260506035037 | 59 | 230 | 3.5 | 3.5 | 0.00 | 0.00 | 0.00 | 58 | 1030.1 |
| 20260506034017 | 58 | 234 | 2.6 | 3.5 | 0.00 | 0.00 | 0.00 | 59 | 1030.8 |
| 20260506033016 | 58 | 238 | 2.6 | 3.5 | 0.00 | 0.00 | 0.00 | 60 | 1031.5 |
| 20260506032016 | 57 | 241 | 2.6 | 3.5 | 0.00 | 0.00 | 0.00 | 60 | 1032.2 |
| 20260506031016 | 56 | 245 | 2.6 | 3.5 | 0.00 | 0.00 | 0.00 | 61 | 1032.9 |
| 20260506030017 | 55 | 249 | 2.6 | 3.5 | 0.00 | 0.00 | 0.00 | 61 | 1033.6 |
| 20260506025017 | 54 | 252 | 2.6 | 3.5 | 0.00 | 0.00 | 0.00 | 62 | 1034.2 |
| 20260506024017 | 53 | 256 | 2.6 | 2.6 | 0.00 | 0.00 | 0.00 | 63 | 1034.9 |
| 20260506023017 | 53 | 260 | 2.6 | 2.6 | 0.00 | 0.00 | 0.00 | 63 | 1035.6 |
| 20260506022017 | 52 | 263 | 2.6 | 2.6 | 0.00 | 0.00 | 0.00 | 64 | 1036.2 |
| 20260506021017 | 51 | 267 | 2.6 | 2.6 | 0.00 | 0.00 | 0.00 | 64 | 1036.9 |
| 20260506020037 | 50 | 270 | 2.6 | 2.6 | 0.00 | 0.00 | 0.00 | 65 | 1037.5 |
| 20260506015018 | 49 | 273 | 1.7 | 2.6 | 0.00 | 0.00 | 0.00 | 66 | 1038.2 |
| 20260506014017 | 48 | 277 | 1.7 | 2.6 | 0.00 | 0.00 | 0.00 | 66 | 1038.8 |
| 20260506013016 | 47 | 280 | 1.7 | 2.6 | 0.00 | 0.00 | 0.00 | 67 | 1039.4 |
| 20260506012037 | 47 | 283 | 1.7 | 2.6 | 0.00 | 0.00 | 0.00 | 67 | 1040.0 |
| 20260506011037 | 46 | 286 | 1.7 | 1.7 | 0.00 | 0.00 | 0.00 | 68 | 1040.6 |
| 20260506010017 | 45 | 290 | 1.7 | 1.7 | 0.00 | 0.00 | 0.00 | 68 | 1041.2 |
| 20260506005017 | 44 | 293 | 1.7 | 1.7 | 0.00 | 0.00 | 0.00 | 69 | 1041.8 |
| 20260506003017 | 42 | 299 | 1.7 | 1.7 | 0.00 | 0.00 | 0.00 | 70 | 1042.9 |
| 20260506002016 | 42 | 302 | 1.7 | 1.7 | 0.00 | 0.00 | 0.00 | 70 | 1043.5 |
| 20260506001017 | 41 | 304 | 1.7 | 1.7 | 0.00 | 0.00 | 0.00 | 71 | 1044.0 |
| 20260506000017 | 40 | 307 | 0.9 | 1.7 | 0.00 | 0.00 | 0.00 | 71 | 1044.6 |